Time;durP1;ratioP1;P1;durP2;ratioP2;P2;SDS_P1;SDS_P2;PMS_P1;PMS_P2;Temp;Humidity;BMP_temperature;BMP_pressure;BME280_temperature;BME280_humidity;BME280_pressure;Samples;Min_cycle;Max_cycle;Signal;HPM_P1;HPM_P2
2023/08/05 00:01:00;;;;;;;23.38;14.90;;;13.40;62.90;;;;;;5016530;28;20084;-81
2023/08/05 00:03:25;;;;;;;22.05;13.52;;;13.40;62.90;;;;;;5018005;28;20109;-81
2023/08/05 00:05:51;;;;;;;28.35;15.95;;;13.50;63.20;;;;;;5016271;28;20034;-80
2023/08/05 00:08:16;;;;;;;23.40;13.95;;;13.40;63.80;;;;;;5018873;28;20037;-82
2023/08/05 00:10:46;;;;;;;33.08;17.00;;;13.30;63.50;;;;;;5018385;28;20071;-81
2023/08/05 00:13:12;;;;;;;24.83;14.70;;;13.30;64.50;;;;;;5017468;28;20030;-82
2023/08/05 00:15:38;;;;;;;23.42;14.35;;;13.20;64.10;;;;;;5018393;28;20030;-82
2023/08/05 00:18:04;;;;;;;22.05;13.80;;;13.20;63.50;;;;;;5017980;28;20041;-82
2023/08/05 00:20:30;;;;;;;22.27;13.90;;;13.30;63.70;;;;;;4980874;28;20334;-81
2023/08/05 00:22:56;;;;;;;21.33;14.00;;;13.30;64.20;;;;;;5013102;28;20034;-82
2023/08/05 00:25:21;;;;;;;21.73;14.43;;;13.30;64.00;;;;;;5015987;28;20375;-82
2023/08/05 00:27:47;;;;;;;26.65;15.05;;;13.20;64.40;;;;;;5018874;28;20735;-82
2023/08/05 00:30:13;;;;;;;25.58;15.15;;;13.20;64.40;;;;;;5018885;28;20030;-82
2023/08/05 00:32:39;;;;;;;26.95;15.30;;;13.20;64.00;;;;;;5028468;28;20100;-82
2023/08/05 00:35:05;;;;;;;27.95;16.15;;;13.20;64.00;;;;;;5019266;28;20033;-82
2023/08/05 00:37:31;;;;;;;24.63;15.88;;;13.30;64.00;;;;;;5018531;28;20022;-82
2023/08/05 00:39:58;;;;;;;34.58;17.48;;;13.30;64.10;;;;;;5005148;28;20030;-82
2023/08/05 00:42:25;;;;;;;23.50;14.98;;;13.20;64.60;;;;;;5014281;28;20048;-82
2023/08/05 00:44:51;;;;;;;24.40;14.90;;;13.20;64.10;;;;;;5017671;28;20109;-82
2023/08/05 00:47:20;;;;;;;29.70;16.65;;;13.30;63.80;;;;;;5023754;28;20163;-82
2023/08/05 00:49:47;;;;;;;23.92;15.45;;;13.40;64.40;;;;;;5017701;28;20049;-82
2023/08/05 00:52:15;;;;;;;21.02;14.13;;;13.30;64.90;;;;;;5012311;28;20364;-82
2023/08/05 00:54:40;;;;;;;33.58;17.50;;;13.40;64.70;;;;;;5030357;28;20437;-82
2023/08/05 00:57:07;;;;;;;29.33;17.10;;;13.30;65.50;;;;;;5006095;28;20034;-82
2023/08/05 00:59:32;;;;;;;24.15;14.65;;;13.30;65.50;;;;;;5017528;28;20045;-82
2023/08/05 01:01:58;;;;;;;23.48;15.68;;;13.30;65.10;;;;;;5012367;28;20417;-82
2023/08/05 01:04:24;;;;;;;20.35;13.75;;;13.30;65.60;;;;;;4998238;28;20018;-82
2023/08/05 01:06:50;;;;;;;21.25;13.88;;;13.30;65.60;;;;;;5015594;28;20050;-82
2023/08/05 01:09:16;;;;;;;24.45;14.98;;;13.20;65.90;;;;;;4999376;28;20326;-82
2023/08/05 01:11:42;;;;;;;25.92;15.13;;;13.30;66.10;;;;;;5016755;28;20026;-83
2023/08/05 01:14:07;;;;;;;22.40;14.88;;;13.30;66.00;;;;;;5018600;28;20026;-83
2023/08/05 01:16:33;;;;;;;17.13;12.27;;;13.20;66.50;;;;;;5027144;28;20032;-83
2023/08/05 01:19:00;;;;;;;20.88;12.52;;;13.30;65.80;;;;;;5021865;28;20037;-82
2023/08/05 01:21:45;;;;;;;19.42;12.00;;;13.40;66.90;;;;;;5024742;28;20029;-82
2023/08/05 01:24:18;;;;;;;19.58;12.25;;;13.40;67.60;;;;;;5001224;28;20092;-82
2023/08/05 01:26:49;;;;;;;19.42;11.38;;;13.50;68.50;;;;;;5016886;28;20430;-82
2023/08/05 01:29:14;;;;;;;21.08;13.68;;;13.40;69.20;;;;;;5021156;28;20030;-83
2023/08/05 01:31:44;;;;;;;17.90;12.73;;;13.40;70.10;;;;;;5026859;28;20368;-83
2023/08/05 01:34:11;;;;;;;17.58;11.68;;;13.50;70.00;;;;;;5036087;28;20037;-82
2023/08/05 01:36:40;;;;;;;16.10;10.75;;;13.50;71.10;;;;;;4998080;28;20326;-83
2023/08/05 01:39:05;;;;;;;19.65;11.35;;;13.50;72.10;;;;;;5017602;28;20026;-82
2023/08/05 01:41:31;;;;;;;17.48;11.43;;;13.50;72.70;;;;;;5033592;28;20040;-83
2023/08/05 01:43:57;;;;;;;19.85;12.65;;;13.50;73.10;;;;;;5021560;28;20084;-82
2023/08/05 01:46:22;;;;;;;21.85;12.82;;;13.50;73.80;;;;;;5023985;28;20029;-83
2023/08/05 01:48:48;;;;;;;17.55;11.48;;;13.40;74.00;;;;;;5019838;28;20087;-83
2023/08/05 01:51:13;;;;;;;23.10;13.10;;;13.40;73.10;;;;;;5033966;28;20621;-83
2023/08/05 01:53:39;;;;;;;20.92;12.85;;;13.40;74.20;;;;;;5035468;28;20140;-83
2023/08/05 01:56:05;;;;;;;17.63;11.77;;;13.40;74.10;;;;;;5036006;28;20025;-82
2023/08/05 01:58:30;;;;;;;22.42;13.20;;;13.40;73.70;;;;;;5044551;28;20064;-82
2023/08/05 02:00:56;;;;;;;23.52;13.93;;;13.30;73.70;;;;;;5022016;28;20365;-82
2023/08/05 02:03:21;;;;;;;17.70;12.05;;;13.30;72.40;;;;;;5036369;28;20040;-85
2023/08/05 02:05:47;;;;;;;18.02;12.13;;;13.30;71.70;;;;;;5017145;28;20060;-85
2023/08/05 02:08:13;;;;;;;18.48;12.20;;;13.20;71.90;;;;;;5046474;28;20037;-84
2023/08/05 02:10:40;;;;;;;17.42;11.80;;;13.30;70.80;;;;;;5046027;28;20033;-84
2023/08/05 02:13:06;;;;;;;18.35;11.63;;;13.30;70.10;;;;;;5018249;28;20072;-84
2023/08/05 02:15:32;;;;;;;15.48;10.82;;;13.40;70.40;;;;;;5035214;28;20025;-84
2023/08/05 02:17:57;;;;;;;16.25;11.70;;;13.50;70.80;;;;;;5053656;28;20025;-84
2023/08/05 02:20:23;;;;;;;16.80;10.48;;;13.50;71.90;;;;;;5023607;28;20025;-84
2023/08/05 02:22:49;;;;;;;21.38;12.30;;;13.50;72.70;;;;;;5034173;28;20029;-83
2023/08/05 02:25:14;;;;;;;31.70;13.52;;;13.40;74.30;;;;;;5035334;28;20032;-84
2023/08/05 02:27:40;;;;;;;25.77;14.82;;;13.30;74.60;;;;;;5017983;28;20029;-84
2023/08/05 02:30:06;;;;;;;18.83;11.45;;;13.20;73.10;;;;;;5018041;28;20050;-84
2023/08/05 02:32:32;;;;;;;25.40;13.93;;;13.20;70.50;;;;;;5054660;28;20021;-84
2023/08/05 02:34:57;;;;;;;26.15;14.65;;;13.20;70.80;;;;;;5049303;28;20022;-83
2023/08/05 02:37:23;;;;;;;22.73;14.45;;;13.10;71.40;;;;;;5033620;28;20433;-84
2023/08/05 02:39:48;;;;;;;22.90;13.65;;;13.10;69.40;;;;;;5035160;28;20025;-84
2023/08/05 02:42:14;;;;;;;29.52;15.77;;;13.10;69.00;;;;;;5034123;28;20038;-83
2023/08/05 02:44:39;;;;;;;21.42;13.52;;;13.10;68.90;;;;;;5035079;28;20041;-85
2023/08/05 02:47:05;;;;;;;22.50;13.63;;;13.10;68.40;;;;;;5040453;28;20108;-84
2023/08/05 02:49:34;;;;;;;21.60;13.77;;;13.10;68.00;;;;;;5035225;28;20042;-84
2023/08/05 02:51:59;;;;;;;21.35;14.00;;;13.10;67.40;;;;;;5032007;28;20034;-84
2023/08/05 02:54:25;;;;;;;21.17;12.18;;;13.20;67.30;;;;;;5034949;28;20319;-85
2023/08/05 02:56:51;;;;;;;23.75;12.60;;;13.20;68.20;;;;;;5022698;28;20045;-85
2023/08/05 02:59:16;;;;;;;17.88;12.20;;;13.10;68.20;;;;;;5019097;28;20418;-84
2023/08/05 03:01:42;;;;;;;18.98;11.63;;;13.10;68.30;;;;;;5018427;28;20332;-84
2023/08/05 03:04:08;;;;;;;24.88;12.45;;;13.10;67.80;;;;;;5017997;28;20032;-85
2023/08/05 03:06:34;;;;;;;20.13;12.80;;;13.20;68.60;;;;;;5016824;28;20038;-85
2023/08/05 03:09:00;;;;;;;22.42;13.18;;;13.10;68.50;;;;;;5009397;28;20041;-86
2023/08/05 03:11:28;;;;;;;19.75;12.40;;;13.20;68.50;;;;;;5038565;28;20021;-85
2023/08/05 03:13:54;;;;;;;26.33;15.77;;;13.10;69.50;;;;;;5028565;28;20022;-85
2023/08/05 03:16:19;;;;;;;23.38;13.60;;;13.10;68.70;;;;;;5011179;28;20440;-86
2023/08/05 03:18:45;;;;;;;17.85;12.55;;;13.10;68.90;;;;;;5019054;28;20536;-86
2023/08/05 03:21:10;;;;;;;22.80;13.65;;;13.10;68.20;;;;;;5016569;28;20108;-86
2023/08/05 03:23:36;;;;;;;24.00;14.10;;;13.00;68.30;;;;;;5023250;28;20472;-85
2023/08/05 03:26:02;;;;;;;22.73;13.98;;;13.00;67.80;;;;;;5038447;28;20111;-86
2023/08/05 03:28:27;;;;;;;18.67;12.57;;;13.10;67.70;;;;;;5038322;28;20037;-86
2023/08/05 03:30:53;;;;;;;21.27;13.55;;;13.10;67.10;;;;;;5023849;28;20489;-85
2023/08/05 03:33:18;;;;;;;24.88;13.65;;;13.10;67.90;;;;;;5030130;28;20032;-87
2023/08/05 03:35:44;;;;;;;20.88;13.45;;;13.10;68.70;;;;;;5036966;28;20315;-86
2023/08/05 03:38:10;;;;;;;17.17;11.30;;;13.10;67.70;;;;;;5011617;28;20034;-87
2023/08/05 03:40:36;;;;;;;19.85;12.65;;;13.10;67.60;;;;;;5037350;28;20032;-86
2023/08/05 03:43:02;;;;;;;21.95;13.27;;;13.10;68.10;;;;;;5012737;28;20038;-86
2023/08/05 03:45:28;;;;;;;23.65;13.68;;;13.10;68.00;;;;;;5018294;28;20026;-87
2023/08/05 03:47:56;;;;;;;20.67;13.18;;;13.10;67.70;;;;;;5020020;28;20441;-87
2023/08/05 03:50:21;;;;;;;24.35;14.55;;;13.20;68.00;;;;;;5018589;28;20057;-87
2023/08/05 03:52:48;;;;;;;20.10;12.50;;;13.20;67.70;;;;;;5037790;28;20049;-87
2023/08/05 03:55:14;;;;;;;24.15;15.07;;;13.20;68.10;;;;;;5038156;28;20444;-87
2023/08/05 03:57:40;;;;;;;19.23;12.52;;;13.10;68.00;;;;;;5037876;28;20039;-87
2023/08/05 04:00:09;;;;;;;23.85;14.10;;;13.20;67.40;;;;;;5036263;28;20025;-87
2023/08/05 04:02:35;;;;;;;24.75;14.65;;;13.10;68.90;;;;;;5053674;28;20031;-86
2023/08/05 04:05:02;;;;;;;18.55;12.20;;;13.10;68.00;;;;;;5038309;28;20052;-87
2023/08/05 04:07:27;;;;;;;19.50;12.95;;;13.10;67.60;;;;;;5054148;28;20037;-86
2023/08/05 04:09:53;;;;;;;19.70;12.48;;;13.10;69.10;;;;;;5043271;28;20018;-86
2023/08/05 04:12:19;;;;;;;19.25;12.02;;;13.00;68.10;;;;;;5036968;28;20025;-87
2023/08/05 04:14:45;;;;;;;26.88;13.93;;;13.00;68.20;;;;;;5036688;28;20033;-87
2023/08/05 04:17:14;;;;;;;21.33;13.05;;;13.10;67.80;;;;;;5037561;28;20032;-87
2023/08/05 04:19:41;;;;;;;15.40;11.77;;;13.10;67.80;;;;;;5019347;28;20484;-87
2023/08/05 04:22:07;;;;;;;18.42;11.23;;;13.20;67.80;;;;;;5036038;28;20025;-86
2023/08/05 04:24:33;;;;;;;18.13;12.27;;;13.20;68.20;;;;;;5029532;28;20406;-86
2023/08/05 04:26:59;;;;;;;19.63;12.38;;;13.30;69.30;;;;;;5057360;28;20023;-86
2023/08/05 04:29:25;;;;;;;17.52;11.23;;;13.30;70.30;;;;;;5057203;28;20029;-85
2023/08/05 04:31:52;;;;;;;17.70;10.82;;;13.30;70.50;;;;;;5044206;28;20036;-86
2023/08/05 04:34:18;;;;;;;22.58;13.80;;;13.30;71.00;;;;;;5039451;28;20036;-86
2023/08/05 04:36:50;;;;;;;19.30;12.52;;;13.20;72.20;;;;;;5055767;28;20060;-87
2023/08/05 04:39:18;;;;;;;21.38;12.55;;;13.10;71.40;;;;;;5030591;28;20118;-87
2023/08/05 04:41:44;;;;;;;20.60;11.77;;;13.10;70.70;;;;;;5020809;28;20065;-87
2023/08/05 04:44:10;;;;;;;20.08;12.70;;;13.10;70.50;;;;;;5036703;28;20036;-87
2023/08/05 04:46:36;;;;;;;19.48;13.10;;;13.20;70.70;;;;;;5019355;28;20037;-87
2023/08/05 04:49:05;;;;;;;19.83;13.15;;;13.10;70.80;;;;;;5036313;28;20091;-87
2023/08/05 04:51:30;;;;;;;19.80;13.75;;;13.10;70.60;;;;;;5034900;28;20025;-88
2023/08/05 04:53:56;;;;;;;17.35;12.25;;;13.10;70.80;;;;;;5043368;28;20440;-87
2023/08/05 04:56:25;;;;;;;20.67;13.63;;;13.10;69.70;;;;;;5034930;28;20414;-90
2023/08/05 04:58:51;;;;;;;18.63;12.63;;;13.20;70.90;;;;;;5036985;28;20025;-90
2023/08/05 05:01:17;;;;;;;21.90;14.15;;;13.20;70.90;;;;;;5036641;28;20040;-89
2023/08/05 05:03:46;;;;;;;20.92;12.77;;;13.20;71.90;;;;;;5018093;28;20060;-89
2023/08/05 05:06:11;;;;;;;20.58;12.75;;;13.10;70.80;;;;;;5018322;28;20407;-90
2023/08/05 05:08:37;;;;;;;21.77;14.27;;;13.10;71.40;;;;;;5021029;28;20061;-89
2023/08/05 05:11:07;;;;;;;24.30;12.90;;;13.10;71.00;;;;;;5018279;28;20026;-89
2023/08/05 05:13:33;;;;;;;20.77;13.43;;;13.20;70.50;;;;;;5019911;28;20026;-90
2023/08/05 05:15:58;;;;;;;19.50;12.27;;;13.20;71.40;;;;;;5035116;28;20021;-89
2023/08/05 05:18:24;;;;;;;16.95;12.00;;;13.20;71.00;;;;;;5035511;28;20040;-89
2023/08/05 05:20:50;;;;;;;21.13;13.85;;;13.30;71.60;;;;;;5033276;28;20044;-89
2023/08/05 05:23:16;;;;;;;22.05;14.35;;;13.30;72.00;;;;;;5034032;28;20032;-90
2023/08/05 05:25:42;;;;;;;20.60;13.55;;;13.30;72.60;;;;;;5015619;28;20399;-89
2023/08/05 05:28:10;;;;;;;20.85;14.68;;;13.20;72.70;;;;;;5018469;28;20114;-90
2023/08/05 05:30:38;;;;;;;24.73;14.90;;;13.10;72.30;;;;;;4999142;28;20030;-89
2023/08/05 05:33:12;;;;;;;21.10;13.45;;;13.10;71.20;;;;;;5016920;28;20024;-90
2023/08/05 12:16:48;;;;;;;6.03;3.30;;;21.00;80.10;;;;;;4901223;29;20441;-90
2023/08/05 12:19:28;;;;;;;7.18;3.60;;;20.60;82.50;;;;;;4923672;29;20408;-92
2023/08/05 12:22:06;;;;;;;5.85;3.53;;;20.40;83.00;;;;;;4922311;29;20032;-93
2023/08/05 12:24:49;;;;;;;;;;;;;;;;;;;;;
2023/08/05 12:27:29;;;;;;;6.68;3.90;;;20.40;82.50;;;;;;4928784;29;20028;-93
2023/08/05 12:30:47;;;;;;;9.98;3.95;;;20.60;82.30;;;;;;4904064;29;20083;-92
2023/08/05 12:47:19;;;;;;;5.83;3.00;;;21.90;79.40;;;;;;4797767;29;20033;-93
2023/08/05 12:49:47;;;;;;;6.97;3.60;;;21.60;79.30;;;;;;4846799;29;20239;-91
2023/08/05 12:52:41;;;;;;;6.10;3.30;;;21.40;80.00;;;;;;4847573;29;20165;-92
2023/08/05 12:55:44;;;;;;;;;;;;;;;;;;;;;
2023/08/05 12:58:39;;;;;;;5.95;3.20;;;21.40;80.10;;;;;;4897438;29;20341;-93
2023/08/05 13:02:16;;;;;;;5.53;3.00;;;21.70;79.90;;;;;;4832325;29;20082;-91
2023/08/05 13:05:29;;;;;;;5.93;3.08;;;21.80;79.60;;;;;;4860399;29;20041;-91
2023/08/05 13:08:36;;;;;;;;;;;;;;;;;;;;;
2023/08/05 13:12:06;;;;;;;6.07;3.30;;;22.40;78.80;;;;;;4863113;29;20033;-93
2023/08/05 13:14:34;;;;;;;6.00;2.67;;;22.30;78.50;;;;;;4932008;29;20365;-91
2023/08/05 13:17:25;;;;;;;5.35;2.85;;;22.50;77.40;;;;;;4920130;29;20059;-91
2023/08/05 13:19:51;;;;;;;7.63;3.22;;;22.60;77.70;;;;;;4911098;29;20024;-91
2023/08/05 13:22:22;;;;;;;5.13;2.80;;;23.10;77.00;;;;;;4926636;29;20034;-92
2023/08/05 13:24:50;;;;;;;6.70;2.95;;;23.50;76.00;;;;;;4928801;29;20064;-90
2023/08/05 13:27:21;;;;;;;8.00;3.10;;;23.70;75.70;;;;;;4936311;29;20042;-91
2023/08/05 13:29:50;;;;;;;5.32;3.05;;;23.60;74.00;;;;;;4921050;29;20028;-90
2023/08/05 13:32:21;;;;;;;5.60;2.90;;;23.30;74.60;;;;;;4911169;29;20019;-90
2023/08/05 13:34:52;;;;;;;5.93;3.28;;;22.90;76.20;;;;;;4914175;29;20035;-91
2023/08/05 13:37:21;;;;;;;6.40;3.05;;;23.00;75.30;;;;;;4921827;29;20020;-90
2023/08/05 13:39:50;;;;;;;5.53;3.33;;;22.60;75.70;;;;;;4913448;29;20035;-90
2023/08/05 13:42:15;;;;;;;4.97;2.78;;;22.40;77.30;;;;;;4931319;29;20058;-92
2023/08/05 13:44:42;;;;;;;4.90;2.80;;;22.90;76.60;;;;;;4932948;29;20059;-92
2023/08/05 13:47:09;;;;;;;6.32;2.78;;;23.50;74.50;;;;;;4937429;29;20040;-93
2023/08/05 13:49:35;;;;;;;5.95;2.67;;;23.80;72.60;;;;;;4922038;29;20024;-92
2023/08/05 13:52:01;;;;;;;5.22;3.00;;;23.80;72.30;;;;;;4935634;29;20047;-93
2023/08/05 13:54:26;;;;;;;5.00;2.47;;;23.80;71.70;;;;;;4921548;29;20432;-92
2023/08/05 13:56:52;;;;;;;5.70;2.42;;;23.60;72.00;;;;;;4937766;29;20369;-91
2023/08/05 13:59:17;;;;;;;9.82;3.17;;;23.60;74.00;;;;;;4938222;29;20465;-91
2023/08/05 14:01:44;;;;;;;4.80;2.78;;;24.30;70.70;;;;;;4921771;29;20429;-92
2023/08/05 14:04:10;;;;;;;5.35;2.78;;;24.90;69.50;;;;;;4921878;29;20418;-91
2023/08/05 14:06:36;;;;;;;5.68;2.30;;;25.60;68.60;;;;;;4936686;29;20112;-90
2023/08/05 14:09:04;;;;;;;5.95;2.60;;;25.80;68.20;;;;;;4938587;29;20369;-91
2023/08/05 14:11:29;;;;;;;4.45;2.40;;;26.40;67.00;;;;;;4937989;29;20036;-90
2023/08/05 14:13:55;;;;;;;4.72;2.50;;;26.90;68.60;;;;;;4938355;29;20051;-90
2023/08/05 14:16:21;;;;;;;5.13;2.53;;;27.10;66.60;;;;;;4938480;29;20055;-91
2023/08/05 14:18:46;;;;;;;3.67;2.05;;;27.90;65.20;;;;;;4930595;29;20063;-91
2023/08/05 14:21:14;;;;;;;4.40;2.20;;;28.80;63.90;;;;;;4934493;29;20103;-91
2023/08/05 14:23:40;;;;;;;4.68;2.08;;;28.80;60.70;;;;;;4938605;29;20039;-91
2023/08/05 14:26:05;;;;;;;4.00;2.10;;;28.10;59.90;;;;;;4919594;29;20031;-91
2023/08/05 14:28:31;;;;;;;4.95;2.45;;;27.60;60.80;;;;;;4934472;29;20091;-90
2023/08/05 14:31:04;;;;;;;3.95;2.10;;;27.20;62.30;;;;;;4906627;29;20020;-90
2023/08/05 14:33:30;;;;;;;4.45;2.15;;;26.70;63.40;;;;;;4937598;29;20020;-91
2023/08/05 14:35:56;;;;;;;4.38;2.20;;;26.70;64.00;;;;;;4920673;29;20031;-90
2023/08/05 14:38:22;;;;;;;5.18;2.30;;;26.10;65.80;;;;;;4938450;29;20032;-90
2023/08/05 14:40:48;;;;;;;5.03;2.50;;;25.80;66.50;;;;;;4936847;29;20038;-89
2023/08/05 14:43:13;;;;;;;5.38;2.40;;;26.10;66.70;;;;;;4936785;29;20028;-89
2023/08/05 14:45:39;;;;;;;4.05;2.03;;;26.40;66.50;;;;;;4937572;29;20032;-89
2023/08/05 14:48:05;;;;;;;3.78;2.13;;;25.60;68.30;;;;;;4937387;29;20032;-90
2023/08/05 14:50:35;;;;;;;4.70;2.45;;;25.90;67.00;;;;;;4936546;29;20034;-89
2023/08/05 14:53:01;;;;;;;4.85;2.28;;;25.00;66.30;;;;;;4940800;29;20024;-89
2023/08/05 14:55:27;;;;;;;4.18;2.25;;;24.40;68.50;;;;;;4937128;29;20098;-87
2023/08/05 14:57:53;;;;;;;4.45;2.40;;;24.60;67.50;;;;;;4933862;29;20028;-88
2023/08/05 15:00:19;;;;;;;3.80;1.90;;;24.70;70.00;;;;;;4915072;29;20028;-91
2023/08/05 15:02:44;;;;;;;5.22;2.17;;;24.90;68.00;;;;;;4934921;29;20336;-89
2023/08/05 15:05:10;;;;;;;6.35;2.35;;;24.80;68.70;;;;;;4935463;29;20067;-89
2023/08/05 15:07:36;;;;;;;8.88;5.10;;;24.70;69.40;;;;;;4928012;29;20475;-90
2023/08/05 15:10:03;;;;;;;4.90;2.63;;;24.70;70.40;;;;;;4941654;29;20035;-89
2023/08/05 15:12:28;;;;;;;4.38;2.53;;;24.50;68.10;;;;;;4933942;29;20102;-89
2023/08/05 15:14:54;;;;;;;5.22;2.40;;;24.50;68.70;;;;;;4930874;29;20119;-89
2023/08/05 15:17:20;;;;;;;5.60;2.45;;;24.80;70.40;;;;;;4926872;29;20556;-89
2023/08/05 15:19:46;;;;;;;5.03;2.20;;;25.30;68.30;;;;;;4926497;29;20035;-90
2023/08/05 15:22:12;;;;;;;5.43;2.00;;;25.90;66.50;;;;;;4928540;29;20429;-88
2023/08/05 15:24:38;;;;;;;5.05;2.30;;;26.50;65.60;;;;;;4922999;29;20425;-89
2023/08/05 15:27:04;;;;;;;5.47;2.22;;;26.80;65.60;;;;;;4922331;29;20103;-89
2023/08/05 15:29:30;;;;;;;4.47;2.10;;;26.90;64.90;;;;;;4922219;29;20468;-90
2023/08/05 15:31:56;;;;;;;3.85;2.00;;;26.30;65.20;;;;;;4922248;29;20032;-89
2023/08/05 15:34:22;;;;;;;4.78;2.50;;;25.60;65.60;;;;;;4920735;29;20028;-89
2023/08/05 15:36:48;;;;;;;4.35;2.38;;;24.60;67.10;;;;;;4940327;29;20106;-89
2023/08/05 15:39:13;;;;;;;6.05;2.40;;;24.90;66.90;;;;;;4938428;29;20059;-88
2023/08/05 15:41:39;;;;;;;4.75;2.63;;;24.90;67.90;;;;;;4917326;29;20497;-88
2023/08/05 15:44:05;;;;;;;5.15;2.60;;;24.70;67.80;;;;;;4924397;29;20430;-86
2023/08/05 15:46:31;;;;;;;5.13;2.50;;;24.50;68.50;;;;;;4917778;29;20038;-88
2023/08/05 15:48:56;;;;;;;4.78;2.30;;;25.40;68.30;;;;;;4930626;29;20032;-88
2023/08/05 15:51:22;;;;;;;4.30;2.30;;;26.20;68.30;;;;;;4920735;29;20020;-88
2023/08/05 15:53:48;;;;;;;4.18;2.45;;;26.50;65.80;;;;;;4905128;29;20115;-87
2023/08/05 15:56:13;;;;;;;5.03;2.63;;;26.30;65.50;;;;;;4928189;29;20079;-86
2023/08/05 15:58:39;;;;;;;4.00;2.17;;;25.50;66.70;;;;;;4935889;29;20047;-87
2023/08/05 16:01:06;;;;;;;4.15;2.10;;;25.30;68.20;;;;;;4933157;29;20463;-88
2023/08/05 16:03:33;;;;;;;4.72;2.13;;;26.10;68.30;;;;;;4932008;29;20031;-88
2023/08/05 16:06:01;;;;;;;4.22;2.20;;;27.50;65.00;;;;;;4917347;29;20036;-88
2023/08/05 16:08:27;;;;;;;5.05;2.20;;;28.40;63.60;;;;;;4940638;29;20052;-89
2023/08/05 16:11:01;;;;;;;4.10;2.30;;;28.50;62.70;;;;;;4940341;29;20321;-88
2023/08/05 16:13:26;;;;;;;3.92;2.22;;;28.70;61.80;;;;;;4940445;29;20074;-87
2023/08/05 16:15:52;;;;;;;5.80;2.30;;;28.40;62.50;;;;;;4940515;29;20115;-88
2023/08/05 16:18:17;;;;;;;4.65;2.35;;;28.10;63.20;;;;;;4922919;29;20038;-88
2023/08/05 16:20:46;;;;;;;8.13;3.20;;;27.70;65.50;;;;;;4937666;29;20035;-88
2023/08/05 16:23:12;;;;;;;4.70;2.75;;;27.20;64.70;;;;;;4940200;29;20028;-88
2023/08/05 16:25:37;;;;;;;6.65;2.70;;;26.80;67.10;;;;;;4940506;29;20110;-87
2023/08/05 16:28:03;;;;;;;5.18;2.30;;;26.90;65.40;;;;;;4940104;29;20086;-87
2023/08/05 16:30:28;;;;;;;4.35;1.95;;;28.10;63.90;;;;;;4923597;29;20019;-88
2023/08/05 16:32:54;;;;;;;4.50;2.22;;;29.10;61.70;;;;;;4923302;29;20059;-88
2023/08/05 16:35:23;;;;;;;3.92;2.10;;;29.00;63.30;;;;;;4921270;29;20086;-89
2023/08/05 16:37:49;;;;;;;4.82;2.40;;;28.40;61.40;;;;;;4938328;29;20031;-89
2023/08/05 16:40:17;;;;;;;4.13;2.08;;;27.00;60.90;;;;;;4918204;29;20027;-88
2023/08/05 16:42:43;;;;;;;5.75;2.28;;;25.90;63.90;;;;;;4938231;29;20402;-88
2023/08/05 16:45:12;;;;;;;3.92;2.05;;;25.50;65.40;;;;;;4918832;29;20051;-88
2023/08/05 16:47:40;;;;;;;6.35;2.53;;;25.10;66.20;;;;;;4933191;29;20317;-88
2023/08/05 16:50:06;;;;;;;4.50;2.17;;;24.90;67.50;;;;;;4938606;29;20048;-88
2023/08/05 16:52:31;;;;;;;5.43;2.53;;;24.70;67.10;;;;;;4939940;29;20436;-87
2023/08/05 16:54:57;;;;;;;5.05;2.40;;;24.40;68.50;;;;;;4939216;29;20035;-87
2023/08/05 16:57:31;;;;;;;6.38;2.88;;;24.20;68.50;;;;;;4938123;29;20048;-88
2023/08/05 16:59:57;;;;;;;5.40;2.33;;;23.90;70.60;;;;;;4936633;29;20027;-88
2023/08/05 17:02:22;;;;;;;4.72;2.40;;;23.50;70.50;;;;;;4938645;29;20036;-88
2023/08/05 17:04:48;;;;;;;6.35;2.72;;;23.00;71.50;;;;;;4915129;29;20028;-88
2023/08/05 17:07:14;;;;;;;5.40;2.40;;;22.80;73.30;;;;;;4934472;29;20034;-88
2023/08/05 17:09:39;;;;;;;4.85;2.45;;;22.60;74.40;;;;;;4922433;29;20036;-89
2023/08/05 17:12:07;;;;;;;4.80;2.53;;;22.50;75.70;;;;;;4922095;29;20035;-88
2023/08/05 17:14:32;;;;;;;5.70;2.90;;;22.40;75.00;;;;;;4922148;29;20122;-88
2023/08/05 17:16:58;;;;;;;7.68;2.30;;;22.30;77.70;;;;;;4938528;29;20031;-87
2023/08/05 17:19:24;;;;;;;4.82;2.47;;;22.20;80.40;;;;;;4919818;29;20027;-87
2023/08/05 17:21:49;;;;;;;5.68;3.13;;;22.40;80.80;;;;;;4921961;29;20023;-87
2023/08/05 17:24:15;;;;;;;5.20;2.80;;;22.60;82.50;;;;;;4921367;29;20051;-88
2023/08/05 17:26:40;;;;;;;4.38;2.50;;;22.60;78.80;;;;;;4937366;29;20039;-88
2023/08/05 17:29:09;;;;;;;4.15;2.45;;;22.40;77.40;;;;;;4922110;29;20062;-88
2023/08/05 17:31:35;;;;;;;3.92;2.40;;;22.30;78.80;;;;;;4939071;29;20024;-88
2023/08/05 17:34:00;;;;;;;6.63;3.10;;;22.10;78.90;;;;;;4938324;29;20094;-88
2023/08/05 17:36:27;;;;;;;4.25;2.85;;;21.90;82.50;;;;;;4935686;29;20028;-88
2023/08/05 17:38:52;;;;;;;4.72;2.50;;;21.70;82.60;;;;;;4913400;29;20042;-89
2023/08/05 17:41:18;;;;;;;5.55;3.13;;;21.40;83.40;;;;;;4933682;29;20035;-88
2023/08/05 17:43:43;;;;;;;5.35;3.08;;;21.20;83.10;;;;;;4932862;29;20035;-88
2023/08/05 17:46:10;;;;;;;4.82;3.13;;;21.10;84.30;;;;;;4938903;29;20058;-89
2023/08/05 17:48:36;;;;;;;9.13;2.90;;;21.10;86.30;;;;;;4934034;29;20377;-89
2023/08/05 17:51:01;;;;;;;6.95;3.30;;;21.00;87.00;;;;;;4932507;29;20099;-89
2023/08/05 17:53:27;;;;;;;6.05;3.55;;;20.80;87.30;;;;;;4919169;29;20115;-90
2023/08/05 17:55:53;;;;;;;7.97;3.50;;;20.40;87.20;;;;;;4936553;29;20643;-89
2023/08/05 17:58:25;;;;;;;8.68;4.75;;;20.10;87.10;;;;;;4930030;29;20086;-87
2023/08/05 18:00:52;;;;;;;7.55;4.45;;;19.80;87.90;;;;;;4918517;29;20043;-89
2023/08/05 18:03:18;;;;;;;6.78;3.50;;;19.50;90.00;;;;;;4919338;29;20031;-88
2023/08/05 18:05:44;;;;;;;7.43;3.65;;;19.20;90.50;;;;;;4918931;29;20314;-89
2023/08/05 18:08:09;;;;;;;5.82;3.20;;;18.90;90.40;;;;;;4926863;29;20032;-90
2023/08/05 18:10:35;;;;;;;7.22;3.67;;;18.60;88.80;;;;;;4938653;29;20413;-89
2023/08/05 18:13:04;;;;;;;5.53;2.83;;;18.60;91.40;;;;;;4937537;29;20044;-89
2023/08/05 18:15:30;;;;;;;6.03;3.28;;;18.40;90.80;;;;;;4938367;29;20079;-90
2023/08/05 18:17:56;;;;;;;10.57;3.30;;;18.20;92.00;;;;;;4937547;29;20028;-88
2023/08/05 18:20:23;;;;;;;6.00;3.53;;;18.20;92.30;;;;;;4919778;29;20027;-88
2023/08/05 18:22:49;;;;;;;4.80;3.28;;;18.10;91.80;;;;;;4938615;29;20112;-89
2023/08/05 18:25:14;;;;;;;4.68;3.03;;;18.00;92.40;;;;;;4921779;29;20441;-90
2023/08/05 18:27:40;;;;;;;7.90;4.00;;;18.10;92.10;;;;;;4939474;29;20031;-90
2023/08/05 18:30:18;;;;;;;7.50;5.80;;;18.10;94.30;;;;;;4917836;29;20028;-92
2023/08/05 18:33:05;;;;;;;8.02;4.82;;;18.10;95.60;;;;;;4921799;29;20024;-92
2023/08/05 18:42:20;;;;;;;10.25;4.85;;;17.40;96.90;;;;;;4857573;29;20033;-84
2023/08/05 18:44:46;;;;;;;13.57;5.45;;;17.00;96.80;;;;;;4939593;29;20046;-81
2023/08/05 18:47:11;;;;;;;10.15;5.32;;;16.60;96.30;;;;;;4940745;29;20306;-81
2023/08/05 18:49:37;;;;;;;11.52;4.60;;;16.00;95.80;;;;;;4919793;29;20105;-84
2023/08/05 18:52:02;;;;;;;7.85;5.25;;;15.40;95.90;;;;;;4938939;29;20031;-83
2023/08/05 18:54:28;;;;;;;9.43;5.80;;;15.00;92.90;;;;;;4938880;29;20110;-82
2023/08/05 18:56:54;;;;;;;10.35;5.55;;;14.80;90.40;;;;;;4923999;29;20027;-82
2023/08/05 18:59:19;;;;;;;9.25;6.03;;;14.80;89.70;;;;;;4938160;29;20035;-81
2023/08/05 19:01:45;;;;;;;10.50;5.72;;;14.70;88.90;;;;;;4928035;29;20032;-80
2023/08/05 19:04:13;;;;;;;8.60;5.57;;;14.70;87.80;;;;;;4935113;29;20525;-79
2023/08/05 19:06:39;;;;;;;10.32;7.53;;;14.60;86.00;;;;;;4920387;29;20110;-80
2023/08/05 19:09:06;;;;;;;11.68;6.90;;;14.60;81.70;;;;;;4927111;29;20102;-79
2023/08/05 19:11:32;;;;;;;9.70;5.85;;;14.60;80.10;;;;;;4924645;29;20024;-79
2023/08/05 19:13:57;;;;;;;10.55;7.13;;;14.60;79.50;;;;;;4923854;29;20058;-79
2023/08/05 19:16:23;;;;;;;10.52;7.35;;;14.60;78.50;;;;;;4941425;29;20028;-79
2023/08/05 19:18:48;;;;;;;12.60;8.48;;;14.50;77.20;;;;;;4939474;29;20032;-78
2023/08/05 19:21:14;;;;;;;13.32;9.00;;;14.50;74.90;;;;;;4939962;29;20062;-78
2023/08/05 19:23:42;;;;;;;12.45;9.00;;;14.40;74.00;;;;;;4941059;29;20028;-77
2023/08/05 19:26:09;;;;;;;11.65;8.43;;;14.30;71.70;;;;;;4923506;29;20027;-78
2023/08/05 19:28:35;;;;;;;11.00;6.85;;;14.30;71.00;;;;;;4937111;29;20032;-78
2023/08/05 19:31:08;;;;;;;13.00;6.45;;;14.30;70.10;;;;;;4924276;29;20473;-79
2023/08/05 19:33:34;;;;;;;10.07;6.25;;;14.20;73.30;;;;;;4923973;29;20070;-79
2023/08/05 19:36:11;;;;;;;10.63;7.55;;;14.00;74.70;;;;;;4939876;29;20032;-79
2023/08/05 19:38:37;;;;;;;8.80;5.97;;;14.00;74.00;;;;;;4922643;29;20059;-79
2023/08/05 19:41:03;;;;;;;6.95;5.28;;;13.90;73.40;;;;;;4923866;29;20063;-79
2023/08/05 19:43:29;;;;;;;8.13;5.50;;;13.90;74.30;;;;;;4922552;29;20028;-79
2023/08/05 19:46:03;;;;;;;9.23;6.20;;;13.90;75.70;;;;;;4940777;29;20032;-79